Terminal Aerodrome Forecast
Issued by NWS Twin Cities, MN

Home | Current Version | Previous Version | Graphics & Text | Print | Product List | Glossary On
Versions: 1 2 3 4 5 6 7 8 9 10 11 12 13 14 15 16 17 18 19 20 21 22 23 24 25 26 27
000
FTUS43 KMPX 232300
TAFEAU
TAF
KEAU 232334Z 2400/2424 18004KT 6SM BR OVC010
     FM240300 20003KT P6SM BKN012
     FM240600 21003KT 3SM BR OVC008
     FM241000 00000KT 1/4SM FG VV001
     FM241500 18003KT 6SM BR SCT015
     FM241700 20009KT P6SM BKN035=

USA.gov is the U.S. government's official web portal to all federal, state and local government web resources and services.